KEDN

Enterprise Municipal Airport

Enterprise, Alabama, USA
METAR KEDN 151235Z AUTO 34008G17KT 10SM OVC005 02/01 A3015 RMK AO2 T00150014
Observed Flight Rules
Nov-15 @ 12:35 UTC (8 minutes ago) Instrument Flight Rules
Wind Visibility Clouds
340° at 8 knots
 Gusting to 17 knots
10 miles
  • Overcast at 500' AGL
Temperatures Readings
Current 2°C / 36°F
Dewpoint 1°C / 34°F
Humidity 93%
Altimeter 30.15" Hg
Pressure 1021 hPa
Elevation 110
METAR KEDN 151235Z AUTO 34008G17KT 10SM OVC005 02/01 A3015 RMK AO2 T00150014
Observed Flight Rules
Nov-15 @ 12:35 UTC
(8 minutes ago)
IFR
Wind Visibility
340° at 8 knots
 Gusting to 17 knots
10 miles
Clouds
  • Overcast at 500' AGL
Temperature Dewpoint
2°C / 36°F 1°C / 34°F
Humidity Altimeter Pressure
93% 30.15" Hg 1021 hPa